KNEW/NEW METAR and TAF weather

Enter ICAO airport designator
Station Type Date Time Source
KNEW METAR 2020/02/19 13:53 UTC NOAA

KNEW 191353Z 03004KT 7SM OVC007 18/17 A3021 RMK AO2 SLP222 T01830167


Station Type Date Time Source
KNEW Decoded METAR 2020/02/19 13:53 UTC NOAA

NEW ORLEANS LAKEFRONT AIRPORT , LA, United States (KNEW) 30-03N 90-02W 3M
Feb 19, 2020 - 08:53 AM EST / 2020.02.19 1353 UTC
Wind: from the NNE (030 degrees) at 5 MPH (4 KT):0
Visibility: 7 mile(s):0
Sky conditions: overcast
Temperature: 64.9 F (18.3 C)
Dew Point: 62.1 F (16.7 C)
Relative Humidity: 90%
Pressure (altimeter): 30.21 in. Hg (1023 hPa)
ob: KNEW 191353Z 03004KT 7SM OVC007 18/17 A3021 RMK AO2 SLP222 T01830167
cycle: 14

Station Type Date Time Source
KNEW TAF 2020/02/19 12:22 UTC NOAA

TAF KNEW 191120Z 1912/2012 01012KT 5SM BR VCSH OVC004
FM191500 04005KT 4SM BR VCSH OVC003
FM191700 05005KT P6SM VCSH OVC008
FM200600 08005KT 1SM BR OVC003

Example: see airport list